Papere Vagabonde

Aviosuperficie Caposile LIKI

Pista 04


Pista 22

Le immagini vengono aggiornate ogni minuto
Cliccare sull'immagine per l'ingrandimento.

METAR LIPZ

LIPZ 121820Z 05008KT 9999 FEW020 BKN070 15/13 Q1006 NOSIG

TAF LIPZ 121700Z 1218/1324 03007KT 9999 SCT040
  TEMPO 1218/1224 SHRA
  TEMPO 1309/1318 TSRA
  BECMG 1310/1312 15010KT


weather station active


      


Alba: 05:45
Tramonto: 20:27